sensor_id;sensor_type;location;lat;lon;timestamp;pressure;altitude;pressure_sealevel;temperature;humidity
5380;BME280;2713;42.680;23.310;2022-07-30T00:00:59;95059.31;;;25.21;45.29
5380;BME280;2713;42.680;23.310;2022-07-30T00:03:27;95062.53;;;25.13;45.70
5380;BME280;2713;42.680;23.310;2022-07-30T00:05:54;95066.53;;;25.16;45.62
5380;BME280;2713;42.680;23.310;2022-07-30T00:08:22;95061.16;;;25.21;45.28
5380;BME280;2713;42.680;23.310;2022-07-30T00:10:49;95020.03;;;24.88;45.63
5380;BME280;2713;42.680;23.310;2022-07-30T00:13:16;95056.97;;;25.10;45.66
5380;BME280;2713;42.680;23.310;2022-07-30T00:15:43;95050.03;;;25.09;45.59
5380;BME280;2713;42.680;23.310;2022-07-30T00:18:11;95060.41;;;25.10;45.90
5380;BME280;2713;42.680;23.310;2022-07-30T00:20:39;95047.91;;;25.11;45.56
5380;BME280;2713;42.680;23.310;2022-07-30T00:23:06;95047.13;;;25.05;45.68
5380;BME280;2713;42.680;23.310;2022-07-30T00:25:33;95052.16;;;25.17;45.64
5380;BME280;2713;42.680;23.310;2022-07-30T00:28:00;95050.00;;;25.19;45.69
5380;BME280;2713;42.680;23.310;2022-07-30T00:30:27;95047.31;;;25.24;45.84
5380;BME280;2713;42.680;23.310;2022-07-30T00:32:53;95051.34;;;25.16;45.98
5380;BME280;2713;42.680;23.310;2022-07-30T00:35:20;95049.75;;;25.20;45.64
5380;BME280;2713;42.680;23.310;2022-07-30T00:37:49;95035.13;;;25.13;45.39
5380;BME280;2713;42.680;23.310;2022-07-30T00:40:16;95050.59;;;25.06;45.85
5380;BME280;2713;42.680;23.310;2022-07-30T00:42:44;95040.19;;;25.04;45.89
5380;BME280;2713;42.680;23.310;2022-07-30T00:45:12;95038.34;;;25.05;46.33
5380;BME280;2713;42.680;23.310;2022-07-30T00:47:39;95041.03;;;25.00;46.18
5380;BME280;2713;42.680;23.310;2022-07-30T00:50:08;95029.88;;;24.83;46.44
5380;BME280;2713;42.680;23.310;2022-07-30T00:52:36;95050.31;;;24.97;46.63
5380;BME280;2713;42.680;23.310;2022-07-30T00:55:07;95051.13;;;24.98;46.89
5380;BME280;2713;42.680;23.310;2022-07-30T00:57:35;95046.34;;;25.00;46.71
5380;BME280;2713;42.680;23.310;2022-07-30T01:00:04;95034.66;;;24.96;47.02
5380;BME280;2713;42.680;23.310;2022-07-30T01:02:32;95042.91;;;24.89;46.83
5380;BME280;2713;42.680;23.310;2022-07-30T01:04:59;95036.75;;;24.94;46.95
5380;BME280;2713;42.680;23.310;2022-07-30T01:07:25;95038.88;;;24.97;47.07
5380;BME280;2713;42.680;23.310;2022-07-30T01:09:52;95035.97;;;24.93;46.85
5380;BME280;2713;42.680;23.310;2022-07-30T01:12:24;95034.66;;;24.96;47.18
5380;BME280;2713;42.680;23.310;2022-07-30T01:14:52;95032.28;;;24.89;47.64
5380;BME280;2713;42.680;23.310;2022-07-30T01:17:20;95029.06;;;24.82;47.29
5380;BME280;2713;42.680;23.310;2022-07-30T01:19:48;95037.03;;;24.87;47.54
5380;BME280;2713;42.680;23.310;2022-07-30T01:22:26;95039.66;;;25.07;46.85
5380;BME280;2713;42.680;23.310;2022-07-30T01:24:59;95038.78;;;25.32;46.72
5380;BME280;2713;42.680;23.310;2022-07-30T01:27:31;95032.91;;;25.40;46.24
5380;BME280;2713;42.680;23.310;2022-07-30T01:30:03;95032.63;;;25.47;46.17
5380;BME280;2713;42.680;23.310;2022-07-30T01:32:32;95036.88;;;25.53;46.23
5380;BME280;2713;42.680;23.310;2022-07-30T01:35:01;95030.00;;;25.37;46.25
5380;BME280;2713;42.680;23.310;2022-07-30T01:37:30;95039.84;;;25.51;46.24
5380;BME280;2713;42.680;23.310;2022-07-30T01:39:59;95033.72;;;25.36;46.81
5380;BME280;2713;42.680;23.310;2022-07-30T01:42:27;95034.22;;;25.43;46.55
5380;BME280;2713;42.680;23.310;2022-07-30T01:44:57;95031.56;;;25.43;46.85
5380;BME280;2713;42.680;23.310;2022-07-30T01:47:26;95035.53;;;25.60;46.00
5380;BME280;2713;42.680;23.310;2022-07-30T01:49:55;95040.75;;;25.76;45.74
5380;BME280;2713;42.680;23.310;2022-07-30T01:52:24;95042.09;;;25.78;45.91
5380;BME280;2713;42.680;23.310;2022-07-30T01:54:56;95041.59;;;25.71;46.23
5380;BME280;2713;42.680;23.310;2022-07-30T01:57:24;95047.19;;;25.69;46.51
5380;BME280;2713;42.680;23.310;2022-07-30T01:59:59;95037.63;;;25.68;46.19
5380;BME280;2713;42.680;23.310;2022-07-30T02:02:31;95046.63;;;25.78;46.43
5380;BME280;2713;42.680;23.310;2022-07-30T02:05:00;95040.28;;;25.68;46.36
5380;BME280;2713;42.680;23.310;2022-07-30T02:07:33;95053.00;;;25.77;46.30
5380;BME280;2713;42.680;23.310;2022-07-30T02:10:04;95036.47;;;25.80;46.52
5380;BME280;2713;42.680;23.310;2022-07-30T02:12:43;95041.25;;;25.83;46.41
5380;BME280;2713;42.680;23.310;2022-07-30T02:15:18;95031.16;;;25.80;46.72
5380;BME280;2713;42.680;23.310;2022-07-30T02:17:56;95034.31;;;25.87;46.76
5380;BME280;2713;42.680;23.310;2022-07-30T02:20:26;95023.16;;;25.80;46.62
5380;BME280;2713;42.680;23.310;2022-07-30T02:22:57;95024.50;;;25.82;46.67
5380;BME280;2713;42.680;23.310;2022-07-30T02:25:26;95028.53;;;25.69;47.04
5380;BME280;2713;42.680;23.310;2022-07-30T02:28:01;95029.66;;;25.63;47.26
5380;BME280;2713;42.680;23.310;2022-07-30T02:30:33;95022.47;;;25.64;46.92
5380;BME280;2713;42.680;23.310;2022-07-30T02:33:04;95029.16;;;25.46;47.69
5380;BME280;2713;42.680;23.310;2022-07-30T02:35:37;95033.91;;;25.59;47.24
5380;BME280;2713;42.680;23.310;2022-07-30T02:38:05;95028.09;;;25.57;47.37
5380;BME280;2713;42.680;23.310;2022-07-30T02:40:33;95028.84;;;25.63;47.59
5380;BME280;2713;42.680;23.310;2022-07-30T02:43:01;95032.31;;;25.58;47.56
5380;BME280;2713;42.680;23.310;2022-07-30T02:45:30;95018.19;;;25.68;47.11
5380;BME280;2713;42.680;23.310;2022-07-30T02:48:01;95018.94;;;25.73;47.32
5380;BME280;2713;42.680;23.310;2022-07-30T02:50:31;95027.47;;;25.70;47.44
5380;BME280;2713;42.680;23.310;2022-07-30T02:53:00;95017.94;;;25.59;47.49
5380;BME280;2713;42.680;23.310;2022-07-30T02:55:30;95019.31;;;25.57;47.87
5380;BME280;2713;42.680;23.310;2022-07-30T02:58:00;95016.84;;;25.65;47.54
5380;BME280;2713;42.680;23.310;2022-07-30T03:00:28;95015.78;;;25.66;47.54
5380;BME280;2713;42.680;23.310;2022-07-30T03:02:59;95021.66;;;25.63;48.16
5380;BME280;2713;42.680;23.310;2022-07-30T03:05:26;95011.03;;;25.58;48.28
5380;BME280;2713;42.680;23.310;2022-07-30T03:07:55;95020.09;;;25.52;47.96
5380;BME280;2713;42.680;23.310;2022-07-30T03:10:23;95011.03;;;25.58;48.31
5380;BME280;2713;42.680;23.310;2022-07-30T03:12:51;95005.19;;;25.56;48.03
5380;BME280;2713;42.680;23.310;2022-07-30T03:15:19;95009.19;;;25.54;48.63
5380;BME280;2713;42.680;23.310;2022-07-30T03:17:49;95005.00;;;25.38;49.09
5380;BME280;2713;42.680;23.310;2022-07-30T03:20:21;95012.69;;;25.44;49.26
5380;BME280;2713;42.680;23.310;2022-07-30T03:22:50;95011.63;;;25.35;49.01
5380;BME280;2713;42.680;23.310;2022-07-30T03:25:24;95011.66;;;25.30;49.26
5380;BME280;2713;42.680;23.310;2022-07-30T03:27:54;95014.88;;;25.27;49.40
5380;BME280;2713;42.680;23.310;2022-07-30T03:30:23;95021.22;;;25.36;49.20
5380;BME280;2713;42.680;23.310;2022-07-30T03:32:52;95014.84;;;25.32;49.83
5380;BME280;2713;42.680;23.310;2022-07-30T03:35:22;95016.69;;;25.37;49.82
5380;BME280;2713;42.680;23.310;2022-07-30T03:37:50;95018.25;;;25.43;49.82
5380;BME280;2713;42.680;23.310;2022-07-30T03:40:18;95012.50;;;25.10;49.74
5380;BME280;2713;42.680;23.310;2022-07-30T03:42:45;95031.16;;;25.00;49.40
5380;BME280;2713;42.680;23.310;2022-07-30T03:45:16;95014.69;;;25.03;49.46
5380;BME280;2713;42.680;23.310;2022-07-30T03:47:45;95026.84;;;25.24;49.43
5380;BME280;2713;42.680;23.310;2022-07-30T03:50:13;95026.03;;;25.34;49.17
5380;BME280;2713;42.680;23.310;2022-07-30T03:52:42;95026.03;;;25.29;49.84
5380;BME280;2713;42.680;23.310;2022-07-30T03:55:15;95028.91;;;25.43;49.16
5380;BME280;2713;42.680;23.310;2022-07-30T03:57:48;95033.94;;;25.49;49.53
5380;BME280;2713;42.680;23.310;2022-07-30T04:00:17;95034.75;;;25.50;49.26
5380;BME280;2713;42.680;23.310;2022-07-30T04:02:50;95036.34;;;25.56;48.64
5380;BME280;2713;42.680;23.310;2022-07-30T04:05:52;95044.63;;;25.54;48.90
5380;BME280;2713;42.680;23.310;2022-07-30T04:08:21;95039.78;;;25.56;48.64
5380;BME280;2713;42.680;23.310;2022-07-30T04:10:49;95041.16;;;25.39;49.57
5380;BME280;2713;42.680;23.310;2022-07-30T04:13:34;95041.41;;;25.52;49.15
5380;BME280;2713;42.680;23.310;2022-07-30T04:16:04;95040.59;;;25.52;49.65
5380;BME280;2713;42.680;23.310;2022-07-30T04:18:39;95039.56;;;25.43;50.09
5380;BME280;2713;42.680;23.310;2022-07-30T04:21:08;95039.25;;;25.49;50.32
5380;BME280;2713;42.680;23.310;2022-07-30T04:23:38;95044.59;;;25.49;49.87
5380;BME280;2713;42.680;23.310;2022-07-30T04:26:06;95033.81;;;25.05;51.67
5380;BME280;2713;42.680;23.310;2022-07-30T04:28:34;95047.31;;;25.24;50.91
5380;BME280;2713;42.680;23.310;2022-07-30T04:31:01;95048.91;;;25.35;51.14
5380;BME280;2713;42.680;23.310;2022-07-30T04:33:29;95043.56;;;25.35;50.96
5380;BME280;2713;42.680;23.310;2022-07-30T04:36:06;95049.19;;;25.34;51.23
5380;BME280;2713;42.680;23.310;2022-07-30T04:38:38;95048.91;;;25.35;50.98
5380;BME280;2713;42.680;23.310;2022-07-30T04:41:05;95050.25;;;25.33;51.13
5380;BME280;2713;42.680;23.310;2022-07-30T04:43:52;95060.91;;;25.22;51.80
5380;BME280;2713;42.680;23.310;2022-07-30T04:46:19;95056.88;;;25.40;51.21
5380;BME280;2713;42.680;23.310;2022-07-30T04:48:47;95053.16;;;25.51;50.48
5380;BME280;2713;42.680;23.310;2022-07-30T04:51:18;95063.97;;;25.70;50.43
5380;BME280;2713;42.680;23.310;2022-07-30T04:53:50;95053.59;;;26.23;48.85
5380;BME280;2713;42.680;23.310;2022-07-30T04:56:19;95051.13;;;26.65;47.62
5380;BME280;2713;42.680;23.310;2022-07-30T04:58:47;95052.00;;;27.18;46.91
5380;BME280;2713;42.680;23.310;2022-07-30T05:01:22;95043.78;;;27.62;45.49
5380;BME280;2713;42.680;23.310;2022-07-30T05:03:50;95047.09;;;27.73;44.85
5380;BME280;2713;42.680;23.310;2022-07-30T05:06:19;95046.78;;;27.98;44.70
5380;BME280;2713;42.680;23.310;2022-07-30T05:08:47;95026.91;;;28.04;43.96
5380;BME280;2713;42.680;23.310;2022-07-30T05:11:15;95038.13;;;28.25;43.80
5380;BME280;2713;42.680;23.310;2022-07-30T05:13:43;95035.16;;;28.45;43.59
5380;BME280;2713;42.680;23.310;2022-07-30T05:16:12;95036.16;;;28.49;43.33
5380;BME280;2713;42.680;23.310;2022-07-30T05:18:40;95038.75;;;28.54;43.38
5380;BME280;2713;42.680;23.310;2022-07-30T05:21:07;95041.25;;;28.64;43.32
5380;BME280;2713;42.680;23.310;2022-07-30T05:23:36;95040.69;;;28.99;42.18
5380;BME280;2713;42.680;23.310;2022-07-30T05:26:27;95034.75;;;29.16;42.29
5380;BME280;2713;42.680;23.310;2022-07-30T05:28:55;95041.44;;;29.32;41.78
5380;BME280;2713;42.680;23.310;2022-07-30T05:31:27;95045.50;;;29.43;40.99
5380;BME280;2713;42.680;23.310;2022-07-30T05:33:58;95037.78;;;29.69;40.63
5380;BME280;2713;42.680;23.310;2022-07-30T05:36:30;95040.06;;;29.48;40.90
5380;BME280;2713;42.680;23.310;2022-07-30T05:38:58;95041.72;;;29.72;40.71
5380;BME280;2713;42.680;23.310;2022-07-30T05:41:49;95043.53;;;29.90;40.56
5380;BME280;2713;42.680;23.310;2022-07-30T05:44:23;95034.16;;;30.01;39.97
5380;BME280;2713;42.680;23.310;2022-07-30T05:46:51;95033.88;;;30.02;40.73
5380;BME280;2713;42.680;23.310;2022-07-30T05:49:18;95041.44;;;30.23;39.90
5380;BME280;2713;42.680;23.310;2022-07-30T05:51:45;95036.94;;;30.32;39.90
5380;BME280;2713;42.680;23.310;2022-07-30T05:54:12;95038.72;;;30.36;39.43
5380;BME280;2713;42.680;23.310;2022-07-30T05:57:06;95041.69;;;30.35;39.74
5380;BME280;2713;42.680;23.310;2022-07-30T05:59:36;95045.41;;;30.61;39.60
5380;BME280;2713;42.680;23.310;2022-07-30T06:02:07;95046.31;;;31.01;39.55
5380;BME280;2713;42.680;23.310;2022-07-30T06:04:54;95033.19;;;31.30;38.79
5380;BME280;2713;42.680;23.310;2022-07-30T06:07:22;95036.69;;;31.39;38.59
5380;BME280;2713;42.680;23.310;2022-07-30T06:09:51;95043.44;;;31.28;38.68
5380;BME280;2713;42.680;23.310;2022-07-30T06:12:19;95046.47;;;31.35;38.28
5380;BME280;2713;42.680;23.310;2022-07-30T06:14:47;95040.91;;;31.54;38.11
5380;BME280;2713;42.680;23.310;2022-07-30T06:17:20;95041.31;;;31.47;38.27
5380;BME280;2713;42.680;23.310;2022-07-30T06:20:11;95056.31;;;31.48;37.96
5380;BME280;2713;42.680;23.310;2022-07-30T06:23:10;95052.66;;;31.44;37.92
5380;BME280;2713;42.680;23.310;2022-07-30T06:26:01;95040.19;;;31.88;36.84
5380;BME280;2713;42.680;23.310;2022-07-30T06:28:29;95040.31;;;31.83;37.46
5380;BME280;2713;42.680;23.310;2022-07-30T06:30:56;95045.91;;;32.03;36.48
5380;BME280;2713;42.680;23.310;2022-07-30T06:33:26;95039.63;;;32.08;36.25
5380;BME280;2713;42.680;23.310;2022-07-30T06:35:53;95036.72;;;32.04;35.94
5380;BME280;2713;42.680;23.310;2022-07-30T06:38:23;95044.19;;;32.16;35.88
5380;BME280;2713;42.680;23.310;2022-07-30T06:40:56;95048.81;;;32.24;35.84
5380;BME280;2713;42.680;23.310;2022-07-30T06:44:00;95036.03;;;31.64;36.25
5380;BME280;2713;42.680;23.310;2022-07-30T06:46:50;95025.00;;;31.75;36.56
5380;BME280;2713;42.680;23.310;2022-07-30T06:49:19;95029.47;;;32.13;35.96
5380;BME280;2713;42.680;23.310;2022-07-30T06:51:46;95020.78;;;32.08;35.71
5380;BME280;2713;42.680;23.310;2022-07-30T06:54:13;95019.50;;;32.48;35.27
5380;BME280;2713;42.680;23.310;2022-07-30T06:57:09;95020.63;;;32.39;35.33
5380;BME280;2713;42.680;23.310;2022-07-30T06:59:37;95028.22;;;32.45;35.20
5380;BME280;2713;42.680;23.310;2022-07-30T07:02:22;95008.78;;;32.23;35.48
5380;BME280;2713;42.680;23.310;2022-07-30T07:05:04;94997.78;;;31.67;35.93
5380;BME280;2713;42.680;23.310;2022-07-30T07:07:32;95014.59;;;30.81;38.11
5380;BME280;2713;42.680;23.310;2022-07-30T07:09:59;94999.03;;;31.22;36.87
5380;BME280;2713;42.680;23.310;2022-07-30T07:12:44;95007.63;;;30.80;37.83
5380;BME280;2713;42.680;23.310;2022-07-30T07:15:16;95001.09;;;31.25;37.64
5380;BME280;2713;42.680;23.310;2022-07-30T07:17:43;95003.31;;;31.80;36.54
5380;BME280;2713;42.680;23.310;2022-07-30T07:20:45;94995.22;;;31.62;37.28
5380;BME280;2713;42.680;23.310;2022-07-30T07:23:12;94996.38;;;31.96;36.07
5380;BME280;2713;42.680;23.310;2022-07-30T07:25:40;94992.63;;;32.14;36.35
5380;BME280;2713;42.680;23.310;2022-07-30T07:28:07;94997.31;;;32.00;36.08
5380;BME280;2713;42.680;23.310;2022-07-30T07:30:35;95003.06;;;32.33;36.06
5380;BME280;2713;42.680;23.310;2022-07-30T07:33:05;95001.78;;;32.13;36.12
5380;BME280;2713;42.680;23.310;2022-07-30T07:35:32;95002.91;;;32.29;35.48
5380;BME280;2713;42.680;23.310;2022-07-30T07:37:59;94990.09;;;32.09;36.26
5380;BME280;2713;42.680;23.310;2022-07-30T07:40:26;94991.63;;;31.93;36.92
5380;BME280;2713;42.680;23.310;2022-07-30T07:42:55;94991.50;;;32.41;36.25
5380;BME280;2713;42.680;23.310;2022-07-30T07:45:22;94996.81;;;32.92;34.92
5380;BME280;2713;42.680;23.310;2022-07-30T07:48:00;94996.84;;;33.39;34.19
5380;BME280;2713;42.680;23.310;2022-07-30T07:50:48;94993.56;;;32.70;34.99
5380;BME280;2713;42.680;23.310;2022-07-30T07:53:26;94985.38;;;32.95;34.74
5380;BME280;2713;42.680;23.310;2022-07-30T07:55:52;94998.94;;;32.70;34.98
5380;BME280;2713;42.680;23.310;2022-07-30T07:58:20;94990.88;;;33.25;34.23
5380;BME280;2713;42.680;23.310;2022-07-30T08:00:47;94988.75;;;33.39;34.09
5380;BME280;2713;42.680;23.310;2022-07-30T08:03:17;94985.75;;;33.70;33.50
5380;BME280;2713;42.680;23.310;2022-07-30T08:05:44;94983.28;;;34.06;32.90
5380;BME280;2713;42.680;23.310;2022-07-30T08:08:32;94984.53;;;34.29;32.63
5380;BME280;2713;42.680;23.310;2022-07-30T08:11:27;94981.75;;;34.58;31.94
5380;BME280;2713;42.680;23.310;2022-07-30T08:14:20;94976.72;;;35.14;31.57
5380;BME280;2713;42.680;23.310;2022-07-30T08:17:19;94982.59;;;35.28;30.88
5380;BME280;2713;42.680;23.310;2022-07-30T08:20:08;94981.38;;;34.81;30.94
5380;BME280;2713;42.680;23.310;2022-07-30T08:22:35;94978.97;;;33.55;32.59
5380;BME280;2713;42.680;23.310;2022-07-30T08:25:03;94974.00;;;33.36;33.07
5380;BME280;2713;42.680;23.310;2022-07-30T08:27:30;94968.75;;;34.19;31.89
5380;BME280;2713;42.680;23.310;2022-07-30T08:29:57;94971.72;;;35.04;30.49
5380;BME280;2713;42.680;23.310;2022-07-30T08:32:24;94966.25;;;35.49;29.78
5380;BME280;2713;42.680;23.310;2022-07-30T08:34:51;94971.88;;;35.56;29.56
5380;BME280;2713;42.680;23.310;2022-07-30T08:37:21;94967.56;;;34.94;30.41
5380;BME280;2713;42.680;23.310;2022-07-30T08:39:48;94972.94;;;34.94;30.28
5380;BME280;2713;42.680;23.310;2022-07-30T08:42:15;94965.91;;;35.38;29.71
5380;BME280;2713;42.680;23.310;2022-07-30T08:44:43;94960.28;;;35.31;29.27
5380;BME280;2713;42.680;23.310;2022-07-30T08:47:15;94959.59;;;35.83;29.02
5380;BME280;2713;42.680;23.310;2022-07-30T08:50:02;94962.19;;;35.79;29.25
5380;BME280;2713;42.680;23.310;2022-07-30T08:52:36;94958.38;;;35.32;30.13
5380;BME280;2713;42.680;23.310;2022-07-30T08:55:05;94955.34;;;34.43;30.92
5380;BME280;2713;42.680;23.310;2022-07-30T08:57:33;94952.00;;;34.26;31.33
5380;BME280;2713;42.680;23.310;2022-07-30T09:00:04;94943.78;;;34.01;31.50
5380;BME280;2713;42.680;23.310;2022-07-30T09:02:31;94938.06;;;33.82;31.35
5380;BME280;2713;42.680;23.310;2022-07-30T09:05:02;94942.75;;;33.94;31.62
5380;BME280;2713;42.680;23.310;2022-07-30T09:07:31;94937.00;;;33.75;32.02
5380;BME280;2713;42.680;23.310;2022-07-30T09:10:00;94934.88;;;34.42;30.80
5380;BME280;2713;42.680;23.310;2022-07-30T09:12:37;94932.53;;;34.86;30.53
5380;BME280;2713;42.680;23.310;2022-07-30T09:15:08;94928.41;;;35.13;30.44
5380;BME280;2713;42.680;23.310;2022-07-30T09:17:53;94914.38;;;33.88;31.13
5380;BME280;2713;42.680;23.310;2022-07-30T09:20:23;94917.41;;;34.07;31.12
5380;BME280;2713;42.680;23.310;2022-07-30T09:22:52;94917.00;;;33.76;31.61
5380;BME280;2713;42.680;23.310;2022-07-30T09:25:44;94917.69;;;33.93;30.91
5380;BME280;2713;42.680;23.310;2022-07-30T09:28:32;94922.44;;;34.08;31.08
5380;BME280;2713;42.680;23.310;2022-07-30T09:31:14;94914.34;;;34.08;30.87
5380;BME280;2713;42.680;23.310;2022-07-30T09:34:23;94901.22;;;33.66;31.90
5380;BME280;2713;42.680;23.310;2022-07-30T09:37:04;94910.56;;;33.89;30.60
5380;BME280;2713;42.680;23.310;2022-07-30T09:39:49;94905.69;;;34.03;30.64
5380;BME280;2713;42.680;23.310;2022-07-30T09:42:28;94904.53;;;34.57;29.86
5380;BME280;2713;42.680;23.310;2022-07-30T09:45:06;94906.22;;;34.17;30.78
5380;BME280;2713;42.680;23.310;2022-07-30T09:47:36;94908.97;;;34.08;31.25
5380;BME280;2713;42.680;23.310;2022-07-30T09:50:04;94895.50;;;34.41;30.67
5380;BME280;2713;42.680;23.310;2022-07-30T09:52:32;94900.69;;;34.46;30.95
5380;BME280;2713;42.680;23.310;2022-07-30T09:54:59;94884.66;;;34.62;30.63
5380;BME280;2713;42.680;23.310;2022-07-30T09:57:29;94881.66;;;34.88;30.73
5380;BME280;2713;42.680;23.310;2022-07-30T10:00:15;94882.44;;;34.76;30.50
5380;BME280;2713;42.680;23.310;2022-07-30T10:02:47;94883.72;;;34.13;30.88
5380;BME280;2713;42.680;23.310;2022-07-30T10:05:52;94876.25;;;34.10;30.82
5380;BME280;2713;42.680;23.310;2022-07-30T10:08:20;94879.38;;;34.21;30.74
5380;BME280;2713;42.680;23.310;2022-07-30T10:11:03;94869.75;;;34.11;30.68
5380;BME280;2713;42.680;23.310;2022-07-30T10:13:32;94871.84;;;34.26;30.72
5380;BME280;2713;42.680;23.310;2022-07-30T10:16:00;94868.47;;;34.29;30.53
5380;BME280;2713;42.680;23.310;2022-07-30T10:18:28;94864.31;;;34.65;30.29
5380;BME280;2713;42.680;23.310;2022-07-30T10:21:19;94861.78;;;34.59;29.93
5380;BME280;2713;42.680;23.310;2022-07-30T10:24:09;94861.66;;;34.44;30.26
5380;BME280;2713;42.680;23.310;2022-07-30T10:26:53;94860.91;;;34.55;30.14
5380;BME280;2713;42.680;23.310;2022-07-30T10:29:42;94849.41;;;34.58;29.54
5380;BME280;2713;42.680;23.310;2022-07-30T10:32:09;94851.47;;;34.61;29.84
5380;BME280;2713;42.680;23.310;2022-07-30T10:34:37;94841.81;;;34.85;30.05
5380;BME280;2713;42.680;23.310;2022-07-30T10:37:04;94838.19;;;34.81;30.13
5380;BME280;2713;42.680;23.310;2022-07-30T10:39:35;94833.19;;;34.46;29.98
5380;BME280;2713;42.680;23.310;2022-07-30T10:42:19;94830.50;;;34.58;30.21
5380;BME280;2713;42.680;23.310;2022-07-30T10:45:16;94832.75;;;34.56;30.37
5380;BME280;2713;42.680;23.310;2022-07-30T10:47:45;94833.00;;;33.86;31.44
5380;BME280;2713;42.680;23.310;2022-07-30T10:50:14;94826.66;;;34.02;30.88
5380;BME280;2713;42.680;23.310;2022-07-30T10:52:49;94827.34;;;34.11;30.26
5380;BME280;2713;42.680;23.310;2022-07-30T10:55:20;94822.59;;;34.08;30.23
5380;BME280;2713;42.680;23.310;2022-07-30T10:58:01;94823.25;;;34.26;30.88
5380;BME280;2713;42.680;23.310;2022-07-30T11:00:31;94812.38;;;34.47;30.65
5380;BME280;2713;42.680;23.310;2022-07-30T11:03:19;94809.06;;;34.17;30.64
5380;BME280;2713;42.680;23.310;2022-07-30T11:05:49;94812.28;;;34.55;30.12
5380;BME280;2713;42.680;23.310;2022-07-30T11:08:36;94816.13;;;33.77;30.53
5380;BME280;2713;42.680;23.310;2022-07-30T11:11:04;94802.69;;;33.68;30.79
5380;BME280;2713;42.680;23.310;2022-07-30T11:13:53;94791.34;;;34.28;30.31
5380;BME280;2713;42.680;23.310;2022-07-30T11:16:23;94789.34;;;34.61;30.18
5380;BME280;2713;42.680;23.310;2022-07-30T11:19:11;94792.47;;;34.51;30.10
5380;BME280;2713;42.680;23.310;2022-07-30T11:21:41;94787.16;;;34.43;29.91
5380;BME280;2713;42.680;23.310;2022-07-30T11:24:42;94788.72;;;34.20;30.40
5380;BME280;2713;42.680;23.310;2022-07-30T11:27:36;94792.44;;;34.27;30.79
5380;BME280;2713;42.680;23.310;2022-07-30T11:30:05;94769.28;;;34.50;30.08
5380;BME280;2713;42.680;23.310;2022-07-30T11:32:34;94776.09;;;34.69;30.46
5380;BME280;2713;42.680;23.310;2022-07-30T11:35:16;94774.56;;;34.23;30.64
5380;BME280;2713;42.680;23.310;2022-07-30T11:38:01;94767.13;;;34.20;30.32
5380;BME280;2713;42.680;23.310;2022-07-30T11:40:30;94766.97;;;34.04;30.77
5380;BME280;2713;42.680;23.310;2022-07-30T11:43:17;94767.91;;;34.20;30.80
5380;BME280;2713;42.680;23.310;2022-07-30T11:45:45;94754.31;;;34.29;30.19
5380;BME280;2713;42.680;23.310;2022-07-30T11:48:16;94756.91;;;34.37;30.32
5380;BME280;2713;42.680;23.310;2022-07-30T11:50:44;94756.28;;;33.62;31.12
5380;BME280;2713;42.680;23.310;2022-07-30T11:53:15;94753.06;;;33.28;32.12
5380;BME280;2713;42.680;23.310;2022-07-30T11:55:43;94747.03;;;33.10;31.83
5380;BME280;2713;42.680;23.310;2022-07-30T11:58:22;94749.78;;;33.22;32.42
5380;BME280;2713;42.680;23.310;2022-07-30T12:00:50;94738.00;;;33.27;31.73
5380;BME280;2713;42.680;23.310;2022-07-30T12:03:19;94731.16;;;33.29;31.73
5380;BME280;2713;42.680;23.310;2022-07-30T12:05:46;94736.09;;;33.27;31.98
5380;BME280;2713;42.680;23.310;2022-07-30T12:08:14;94722.13;;;33.13;32.00
5380;BME280;2713;42.680;23.310;2022-07-30T12:10:42;94732.03;;;33.21;32.10
5380;BME280;2713;42.680;23.310;2022-07-30T12:13:10;94720.91;;;33.23;32.18
5380;BME280;2713;42.680;23.310;2022-07-30T12:15:39;94741.09;;;33.37;31.84
5380;BME280;2713;42.680;23.310;2022-07-30T12:18:06;94728.56;;;33.53;31.46
5380;BME280;2713;42.680;23.310;2022-07-30T12:20:37;94728.31;;;33.67;32.13
5380;BME280;2713;42.680;23.310;2022-07-30T12:23:09;94721.94;;;33.72;31.94
5380;BME280;2713;42.680;23.310;2022-07-30T12:25:38;94715.28;;;33.69;31.43
5380;BME280;2713;42.680;23.310;2022-07-30T12:28:05;94704.56;;;33.60;32.34
5380;BME280;2713;42.680;23.310;2022-07-30T12:30:32;94706.00;;;33.79;32.10
5380;BME280;2713;42.680;23.310;2022-07-30T12:33:00;94698.56;;;33.88;31.26
5380;BME280;2713;42.680;23.310;2022-07-30T12:35:42;94696.31;;;33.66;31.21
5380;BME280;2713;42.680;23.310;2022-07-30T12:38:10;94687.56;;;33.48;31.48
5380;BME280;2713;42.680;23.310;2022-07-30T12:40:50;94685.19;;;33.79;31.44
5380;BME280;2713;42.680;23.310;2022-07-30T12:43:17;94689.25;;;33.85;31.71
5380;BME280;2713;42.680;23.310;2022-07-30T12:45:44;94674.19;;;33.72;30.86
5380;BME280;2713;42.680;23.310;2022-07-30T12:48:11;94662.47;;;33.68;31.77
5380;BME280;2713;42.680;23.310;2022-07-30T12:50:38;94653.19;;;33.45;32.58
5380;BME280;2713;42.680;23.310;2022-07-30T12:53:06;94665.81;;;33.53;32.56
5380;BME280;2713;42.680;23.310;2022-07-30T12:55:34;94660.03;;;33.42;32.65
5380;BME280;2713;42.680;23.310;2022-07-30T12:58:02;94650.78;;;33.31;32.54
5380;BME280;2713;42.680;23.310;2022-07-30T13:00:32;94641.63;;;33.56;32.63
5380;BME280;2713;42.680;23.310;2022-07-30T13:03:00;94646.88;;;33.86;32.47
5380;BME280;2713;42.680;23.310;2022-07-30T13:05:47;94645.31;;;33.85;31.94
5380;BME280;2713;42.680;23.310;2022-07-30T13:08:15;94642.63;;;34.09;31.86
5380;BME280;2713;42.680;23.310;2022-07-30T13:10:56;94650.94;;;33.92;31.74
5380;BME280;2713;42.680;23.310;2022-07-30T13:13:24;94643.84;;;33.87;31.78
5380;BME280;2713;42.680;23.310;2022-07-30T13:15:58;94632.97;;;33.84;32.13
5380;BME280;2713;42.680;23.310;2022-07-30T13:18:26;94634.50;;;33.73;32.32
5380;BME280;2713;42.680;23.310;2022-07-30T13:20:53;94630.91;;;33.69;32.63
5380;BME280;2713;42.680;23.310;2022-07-30T13:23:22;94617.31;;;33.77;32.43
5380;BME280;2713;42.680;23.310;2022-07-30T13:25:48;94630.56;;;33.70;32.41
5380;BME280;2713;42.680;23.310;2022-07-30T13:28:15;94629.59;;;33.87;31.79
5380;BME280;2713;42.680;23.310;2022-07-30T13:30:42;94630.34;;;33.63;31.90
5380;BME280;2713;42.680;23.310;2022-07-30T13:33:10;94636.53;;;33.31;32.37
5380;BME280;2713;42.680;23.310;2022-07-30T13:35:37;94627.66;;;33.63;32.20
5380;BME280;2713;42.680;23.310;2022-07-30T13:38:04;94626.31;;;33.81;31.84